createdAt,value
2022-10-11T00:01:32.016Z,15.52
2022-10-11T00:03:59.810Z,16.10
2022-10-11T00:06:27.617Z,16.30
2022-10-11T00:08:55.527Z,15.32
2022-10-11T00:11:23.361Z,15.38
2022-10-11T00:13:50.980Z,15.55
2022-10-11T00:16:19.530Z,15.30
2022-10-11T00:18:47.294Z,15.88
2022-10-11T00:21:16.544Z,15.50
2022-10-11T00:23:44.594Z,15.57
2022-10-11T00:26:12.721Z,15.35
2022-10-11T00:28:41.298Z,15.33
2022-10-11T00:31:13.730Z,14.40
2022-10-11T00:33:41.707Z,14.82
2022-10-11T00:36:10.492Z,14.88
2022-10-11T00:38:38.337Z,13.18
2022-10-11T00:41:06.233Z,12.10
2022-10-11T00:43:34.814Z,13.30
2022-10-11T00:46:28.381Z,14.05
2022-10-11T00:49:13.872Z,12.23
2022-10-11T00:52:07.936Z,12.07
2022-10-11T00:54:40.956Z,12.80
2022-10-11T00:57:13.026Z,12.00
2022-10-11T00:59:45.587Z,11.98
2022-10-11T01:02:14.146Z,11.65
2022-10-11T01:04:42.524Z,12.20
2022-10-11T01:07:11.391Z,12.67
2022-10-11T01:09:39.379Z,12.88
2022-10-11T01:12:22.232Z,12.57
2022-10-11T01:15:20.354Z,11.95
2022-10-11T01:17:51.121Z,12.00
2022-10-11T01:20:21.982Z,10.70
2022-10-11T01:22:55.759Z,11.15
2022-10-11T01:25:47.384Z,12.75
2022-10-11T01:28:28.009Z,11.75
2022-10-11T01:31:03.467Z,11.88
2022-10-11T01:33:48.744Z,11.43
2022-10-11T01:36:32.457Z,11.70
2022-10-11T01:39:05.919Z,11.90
2022-10-11T01:41:56.081Z,11.27
2022-10-11T01:44:28.249Z,12.05
2022-10-11T01:46:56.236Z,11.87
2022-10-11T01:49:23.838Z,12.70
2022-10-11T01:51:58.389Z,13.30
2022-10-11T01:55:08.072Z,12.90
2022-10-11T01:57:57.542Z,11.93
2022-10-11T02:00:29.568Z,11.10
2022-10-11T02:03:16.461Z,11.45
2022-10-11T02:05:56.001Z,12.32
2022-10-11T02:08:46.747Z,11.30
2022-10-11T02:11:25.925Z,10.63
2022-10-11T02:14:02.232Z,11.20
2022-10-11T02:16:39.287Z,10.57
2022-10-11T02:19:08.651Z,10.85
2022-10-11T02:21:41.936Z,10.93
2022-10-11T02:24:17.193Z,10.57
2022-10-11T02:26:49.539Z,10.47
2022-10-11T02:29:18.812Z,10.60
2022-10-11T02:31:47.987Z,11.00
2022-10-11T02:34:21.150Z,11.65
2022-10-11T02:36:58.122Z,10.75
2022-10-11T02:39:42.550Z,10.67
2022-10-11T02:42:17.777Z,11.57
2022-10-11T02:44:53.880Z,11.38
2022-10-11T02:47:22.323Z,12.13
2022-10-11T02:49:50.224Z,12.10
2022-10-11T02:52:18.621Z,11.73
2022-10-11T02:54:46.552Z,11.90
2022-10-11T02:57:14.298Z,11.57
2022-10-11T02:59:42.102Z,10.75
2022-10-11T03:02:10.134Z,12.05
2022-10-11T03:04:37.859Z,10.73
2022-10-11T03:07:05.713Z,10.52
2022-10-11T03:09:33.694Z,11.27
2022-10-11T03:12:01.453Z,10.70
2022-10-11T03:14:29.269Z,11.75
2022-10-11T03:17:12.115Z,10.80
2022-10-11T03:19:45.336Z,11.05
2022-10-11T03:22:13.351Z,11.20
2022-10-11T03:24:41.097Z,10.57
2022-10-11T03:27:08.836Z,12.20
2022-10-11T03:29:36.894Z,12.13
2022-10-11T03:32:05.270Z,12.93
2022-10-11T03:34:33.134Z,12.70
2022-10-11T03:37:01.085Z,14.93
2022-10-11T03:39:28.869Z,15.55
2022-10-11T03:41:56.724Z,16.90
2022-10-11T03:44:24.891Z,15.55
2022-10-11T03:46:52.675Z,15.48
2022-10-11T03:49:20.938Z,15.25
2022-10-11T03:51:48.860Z,15.32
2022-10-11T03:54:16.856Z,15.30
2022-10-11T03:56:45.173Z,16.88
2022-10-11T03:59:13.643Z,15.57
2022-10-11T04:01:41.734Z,16.17
2022-10-11T04:04:09.646Z,17.30
2022-10-11T04:06:38.030Z,16.27
2022-10-11T04:09:06.034Z,16.92
2022-10-11T04:11:34.331Z,16.23
2022-10-11T04:14:02.553Z,18.08
2022-10-11T04:16:30.229Z,17.42
2022-10-11T04:18:58.192Z,16.90
2022-10-11T04:21:26.117Z,16.40
2022-10-11T04:23:54.754Z,16.80
2022-10-11T04:26:22.485Z,17.55
2022-10-11T04:28:50.676Z,17.65
2022-10-11T04:31:18.528Z,16.53
2022-10-11T04:33:46.478Z,16.38
2022-10-11T04:36:14.390Z,17.08
2022-10-11T04:38:42.597Z,17.08
2022-10-11T04:41:13.674Z,16.50
2022-10-11T04:43:42.373Z,17.60
2022-10-11T04:46:10.712Z,16.77
2022-10-11T04:48:39.136Z,18.15
2022-10-11T04:51:07.134Z,18.58
2022-10-11T04:53:34.885Z,18.35
2022-10-11T04:56:05.991Z,18.53
2022-10-11T04:58:35.445Z,17.67
2022-10-11T05:01:03.321Z,18.65
2022-10-11T05:03:31.210Z,18.80
2022-10-11T05:06:03.296Z,18.48
2022-10-11T05:08:33.995Z,18.10
2022-10-11T05:11:07.872Z,17.52
2022-10-11T05:13:36.459Z,17.88
2022-10-11T05:16:09.803Z,18.60
2022-10-11T05:18:39.702Z,21.00
2022-10-11T05:21:16.190Z,20.63
2022-10-11T05:23:44.723Z,19.35
2022-10-11T05:26:12.884Z,19.98
2022-10-11T05:28:41.184Z,20.15
2022-10-11T05:31:11.706Z,18.70
2022-10-11T05:33:41.202Z,18.47
2022-10-11T05:36:11.461Z,18.65
2022-10-11T05:38:39.911Z,19.27
2022-10-11T05:41:09.566Z,18.95
2022-10-11T05:43:37.694Z,21.00
2022-10-11T05:46:06.200Z,33.30
2022-10-11T05:48:36.401Z,26.40
2022-10-11T05:51:07.491Z,18.50
2022-10-11T05:53:36.815Z,17.70
2022-10-11T05:56:05.690Z,17.95
2022-10-11T05:58:33.694Z,19.27
2022-10-11T06:01:02.130Z,18.92
2022-10-11T06:03:30.870Z,17.60
2022-10-11T06:06:02.801Z,16.25
2022-10-11T06:08:31.195Z,18.95
2022-10-11T06:10:58.987Z,17.80
2022-10-11T06:13:27.231Z,16.90
2022-10-11T06:15:55.119Z,17.63
2022-10-11T06:18:22.850Z,17.27
2022-10-11T06:20:51.403Z,17.52
2022-10-11T06:23:20.564Z,17.93
2022-10-11T06:25:59.862Z,17.00
2022-10-11T06:28:29.198Z,17.33
2022-10-11T06:30:58.193Z,17.60
2022-10-11T06:33:26.635Z,18.15
2022-10-11T06:36:02.275Z,17.80
2022-10-11T06:38:30.721Z,17.08
2022-10-11T06:40:58.883Z,18.10
2022-10-11T06:43:26.763Z,20.02
2022-10-11T06:45:59.882Z,21.52
2022-10-11T06:48:55.458Z,19.20
2022-10-11T06:51:36.662Z,20.98
2022-10-11T06:54:12.300Z,21.83
2022-10-11T06:56:50.350Z,29.30
2022-10-11T06:59:20.671Z,28.58
2022-10-11T07:01:49.146Z,29.10
2022-10-11T07:04:17.467Z,24.50
2022-10-11T07:06:45.258Z,25.58
2022-10-11T07:09:15.625Z,22.33
2022-10-11T07:11:43.754Z,23.38
2022-10-11T07:14:11.548Z,25.63
2022-10-11T07:16:39.654Z,26.38
2022-10-11T07:19:07.664Z,25.33
2022-10-11T07:21:36.172Z,27.15
2022-10-11T07:24:04.542Z,27.55
2022-10-11T07:26:38.934Z,28.03
2022-10-11T07:29:09.342Z,30.05
2022-10-11T07:31:39.259Z,26.95
2022-10-11T07:34:07.412Z,30.50
2022-10-11T07:36:35.960Z,25.33
2022-10-11T07:39:05.854Z,26.03
2022-10-11T07:41:34.230Z,25.83
2022-10-11T07:44:03.594Z,22.23
2022-10-11T07:46:31.878Z,15.20
2022-10-11T07:48:59.676Z,15.70
2022-10-11T07:51:27.880Z,13.47
2022-10-11T07:53:56.980Z,13.23
2022-10-11T07:56:27.953Z,12.93
2022-10-11T07:59:01.280Z,13.90
2022-10-11T08:01:31.777Z,13.10
2022-10-11T08:04:00.182Z,13.50
2022-10-11T08:06:33.030Z,14.77
2022-10-11T08:09:02.272Z,15.70
2022-10-11T08:11:35.673Z,14.60
2022-10-11T08:14:08.837Z,13.75
2022-10-11T08:16:38.245Z,11.63
2022-10-11T08:19:07.577Z,10.77
2022-10-11T08:21:35.359Z,11.13
2022-10-11T08:24:05.423Z,11.02
2022-10-11T08:26:34.528Z,10.85
2022-10-11T08:29:05.606Z,10.87
2022-10-11T08:31:34.887Z,11.25
2022-10-11T08:34:03.041Z,12.48
2022-10-11T08:36:30.914Z,13.65
2022-10-11T08:38:59.868Z,12.57
2022-10-11T08:41:48.441Z,13.57
2022-10-11T08:45:05.534Z,12.90
2022-10-11T08:47:34.718Z,13.70
2022-10-11T08:50:06.571Z,12.43
2022-10-11T08:52:51.497Z,10.65
2022-10-11T08:55:25.670Z,9.50
2022-10-11T08:57:56.609Z,10.20
2022-10-11T09:00:29.022Z,9.85
2022-10-11T09:03:15.325Z,9.88
2022-10-11T09:06:24.977Z,10.98
2022-10-11T09:09:29.781Z,10.07
2022-10-11T09:12:16.054Z,10.38
2022-10-11T09:14:56.328Z,10.82
2022-10-11T09:17:48.343Z,11.20
2022-10-11T09:20:23.838Z,9.80
2022-10-11T09:22:55.050Z,10.30
2022-10-11T09:25:34.791Z,10.07
2022-10-11T09:28:38.927Z,9.75
2022-10-11T09:31:10.202Z,8.98
2022-10-11T09:33:48.147Z,9.45
2022-10-11T09:36:45.560Z,9.40
2022-10-11T09:39:36.962Z,9.63
2022-10-11T09:42:08.145Z,10.02
2022-10-11T09:44:40.483Z,9.73
2022-10-11T09:47:14.960Z,9.65
2022-10-11T09:50:03.585Z,9.23
2022-10-11T09:52:31.802Z,9.25
2022-10-11T09:55:02.241Z,9.75
2022-10-11T09:57:34.183Z,9.43
2022-10-11T10:00:20.789Z,9.45
2022-10-11T10:02:59.871Z,10.10
2022-10-11T10:05:32.989Z,9.60
2022-10-11T10:08:09.945Z,10.07
2022-10-11T10:10:48.991Z,10.35
2022-10-11T10:13:22.788Z,10.32
2022-10-11T10:15:53.954Z,10.40
2022-10-11T10:18:24.231Z,10.93
2022-10-11T10:20:55.409Z,10.77
2022-10-11T10:23:35.304Z,11.23
2022-10-11T10:26:25.248Z,10.90
2022-10-11T10:29:03.659Z,11.13
2022-10-11T10:32:13.010Z,10.77
2022-10-11T10:34:55.794Z,10.45
2022-10-11T10:37:34.310Z,11.18
2022-10-11T10:40:18.845Z,11.48
2022-10-11T10:42:47.222Z,11.20
2022-10-11T10:45:21.555Z,11.25
2022-10-11T10:48:42.271Z,10.75
2022-10-11T10:51:25.259Z,9.80
2022-10-11T10:54:16.114Z,10.00
2022-10-11T10:56:53.587Z,10.03
2022-10-11T10:59:25.241Z,9.73
2022-10-11T11:05:26.392Z,9.85
2022-10-11T11:08:09.269Z,10.65
2022-10-11T11:10:43.345Z,10.90
2022-10-11T11:13:35.360Z,9.68
2022-10-11T11:16:32.503Z,9.32
2022-10-11T11:19:28.333Z,8.48
2022-10-11T11:22:06.764Z,8.98
2022-10-11T11:24:46.935Z,9.50
2022-10-11T11:27:30.838Z,8.77
2022-10-11T11:30:10.479Z,9.10
2022-10-11T11:32:55.173Z,9.85
2022-10-11T11:35:45.804Z,9.43
2022-10-11T11:38:29.275Z,9.03
2022-10-11T11:41:04.189Z,8.48
2022-10-11T11:43:44.417Z,9.13
2022-10-11T11:46:22.694Z,8.65
2022-10-11T11:48:54.867Z,8.50
2022-10-11T11:51:38.868Z,8.87
2022-10-11T11:54:27.858Z,8.63
2022-10-11T11:57:05.467Z,9.20
2022-10-11T11:59:45.653Z,9.00
2022-10-11T12:02:19.369Z,9.50
2022-10-11T12:04:48.873Z,9.33
2022-10-11T12:07:20.757Z,8.82
2022-10-11T12:09:54.713Z,9.25
2022-10-11T12:12:35.666Z,8.82
2022-10-11T12:15:10.088Z,9.60
2022-10-11T12:17:58.671Z,9.20
2022-10-11T12:20:30.296Z,9.38
2022-10-11T12:23:05.474Z,9.77
2022-10-11T12:25:37.855Z,9.55
2022-10-11T12:28:43.100Z,9.90
2022-10-11T12:31:22.850Z,10.37
2022-10-11T12:34:08.891Z,9.35
2022-10-11T12:36:44.427Z,10.55
2022-10-11T12:39:44.913Z,9.70
2022-10-11T12:42:32.181Z,10.65
2022-10-11T12:45:14.521Z,9.50
2022-10-11T12:48:13.270Z,10.68
2022-10-11T12:50:59.576Z,10.50
2022-10-11T12:53:50.635Z,9.50
2022-10-11T12:56:56.030Z,8.95
2022-10-11T12:59:25.095Z,9.30
2022-10-11T13:01:58.297Z,9.35
2022-10-11T13:04:30.006Z,10.45
2022-10-11T13:07:06.789Z,9.32
2022-10-11T13:09:39.987Z,10.63
2022-10-11T13:12:13.807Z,331.37
2022-10-11T13:15:10.151Z,324.50
2022-10-11T13:17:39.651Z,174.57
2022-10-11T13:20:18.222Z,204.52
2022-10-11T13:22:54.222Z,30.33
2022-10-11T13:25:25.401Z,11.30
2022-10-11T13:27:55.261Z,15.02
2022-10-11T13:30:35.759Z,10.25
2022-10-11T13:33:11.472Z,12.35
2022-10-11T13:35:39.764Z,8.63
2022-10-11T13:38:20.912Z,8.87
2022-10-11T13:40:51.175Z,9.65
2022-10-11T13:43:25.673Z,10.85
2022-10-11T13:45:55.595Z,10.32
2022-10-11T13:48:26.036Z,9.52
2022-10-11T13:51:33.367Z,9.23
2022-10-11T13:54:04.694Z,10.52
2022-10-11T13:56:37.640Z,10.35
2022-10-11T13:59:05.788Z,10.38
2022-10-11T14:01:40.288Z,9.75
2022-10-11T14:04:11.228Z,9.13
2022-10-11T14:06:56.837Z,8.93
2022-10-11T14:09:35.185Z,9.02
2022-10-11T14:12:26.343Z,8.57
2022-10-11T14:14:54.457Z,9.75
2022-10-11T14:17:33.266Z,8.67
2022-10-11T14:20:12.669Z,9.15
2022-10-11T14:22:41.024Z,9.57
2022-10-11T14:25:08.723Z,8.40
2022-10-11T14:27:37.322Z,8.82
2022-10-11T14:30:31.836Z,8.90
2022-10-11T14:33:01.615Z,9.02
2022-10-11T14:35:32.413Z,9.15
2022-10-11T14:38:00.898Z,10.15
2022-10-11T14:40:31.319Z,9.48
2022-10-11T14:42:59.482Z,9.17
2022-10-11T14:45:28.668Z,10.82
2022-10-11T14:47:56.593Z,11.10
2022-10-11T14:50:47.279Z,11.48
2022-10-11T14:53:15.401Z,11.35
2022-10-11T14:55:44.021Z,9.90
2022-10-11T14:58:15.046Z,8.63
2022-10-11T15:00:43.409Z,9.25
2022-10-11T15:03:11.592Z,10.07
2022-10-11T15:05:39.655Z,9.27
2022-10-11T15:08:08.099Z,11.77
2022-10-11T15:10:39.365Z,17.08
2022-10-11T15:13:08.389Z,28.35
2022-10-11T15:15:40.946Z,19.25
2022-10-11T15:18:13.088Z,17.60
2022-10-11T15:20:44.059Z,30.97
2022-10-11T15:23:12.899Z,137.40
2022-10-11T15:25:42.373Z,221.20
2022-10-11T15:28:36.563Z,40.08
2022-10-11T15:31:04.764Z,19.80
2022-10-11T15:33:32.376Z,21.20
2022-10-11T15:36:00.166Z,21.75
2022-10-11T15:38:28.230Z,25.52
2022-10-11T15:40:56.070Z,31.02
2022-10-11T15:43:25.138Z,28.90
2022-10-11T15:45:55.287Z,19.83
2022-10-11T15:48:26.634Z,23.48
2022-10-11T15:50:55.105Z,27.83
2022-10-11T15:53:30.382Z,34.35
2022-10-11T15:56:01.120Z,39.78
2022-10-11T15:58:41.934Z,38.13
2022-10-11T16:01:19.745Z,42.80
2022-10-11T16:03:50.346Z,40.00
2022-10-11T16:06:19.493Z,29.60
2022-10-11T16:08:48.227Z,20.20
2022-10-11T16:11:16.434Z,14.13
2022-10-11T16:13:45.348Z,14.02
2022-10-11T16:16:13.670Z,14.73
2022-10-11T16:18:45.941Z,15.77
2022-10-11T16:21:15.936Z,18.65
2022-10-11T16:23:49.330Z,18.07
2022-10-11T16:26:36.859Z,15.02
2022-10-11T16:29:25.899Z,12.77
2022-10-11T16:31:54.092Z,14.00
2022-10-11T16:34:21.767Z,13.55
2022-10-11T16:36:49.820Z,14.17
2022-10-11T16:39:20.129Z,13.48
2022-10-11T16:41:48.177Z,12.55
2022-10-11T16:44:18.115Z,11.65
2022-10-11T16:46:50.736Z,12.18
2022-10-11T16:49:22.328Z,12.47
2022-10-11T16:51:51.610Z,13.38
2022-10-11T16:54:20.923Z,12.25
2022-10-11T16:56:50.245Z,11.70
2022-10-11T16:59:20.450Z,11.68
2022-10-11T17:01:48.335Z,11.13
2022-10-11T17:04:16.259Z,10.95
2022-10-11T17:06:45.273Z,11.82
2022-10-11T17:09:14.104Z,11.57
2022-10-11T17:11:42.454Z,11.32
2022-10-11T17:14:12.112Z,11.63
2022-10-11T17:16:39.950Z,17.08
2022-10-11T17:19:13.303Z,15.13
2022-10-11T17:21:41.297Z,12.50
2022-10-11T17:24:09.701Z,13.15
2022-10-11T17:26:37.915Z,14.63
2022-10-11T17:29:05.815Z,15.32
2022-10-11T17:31:33.668Z,15.68
2022-10-11T17:34:01.754Z,17.33
2022-10-11T17:36:34.950Z,19.50
2022-10-11T17:39:07.541Z,21.07
2022-10-11T17:41:35.965Z,21.48
2022-10-11T17:44:04.973Z,18.83
2022-10-11T17:46:36.729Z,16.38
2022-10-11T17:49:08.095Z,14.10
2022-10-11T17:51:37.410Z,13.73
2022-10-11T17:54:06.534Z,13.98
2022-10-11T17:56:38.009Z,15.38
2022-10-11T17:59:07.265Z,14.52
2022-10-11T18:01:36.019Z,15.07
2022-10-11T18:04:06.594Z,15.60
2022-10-11T18:06:39.638Z,13.70
2022-10-11T18:09:08.127Z,13.77
2022-10-11T18:11:36.206Z,13.93
2022-10-11T18:14:05.740Z,15.25
2022-10-11T18:16:35.223Z,13.57
2022-10-11T18:19:06.206Z,13.75
2022-10-11T18:21:35.167Z,13.48
2022-10-11T18:24:08.050Z,14.88
2022-10-11T18:26:36.053Z,14.38
2022-10-11T18:29:06.032Z,13.07
2022-10-11T18:31:35.566Z,13.85
2022-10-11T18:34:06.017Z,18.63
2022-10-11T18:40:07.848Z,26.65
2022-10-11T18:42:54.145Z,21.87
2022-10-11T18:45:22.962Z,21.38
2022-10-11T18:47:52.872Z,23.58
2022-10-11T18:50:21.137Z,19.33
2022-10-11T18:52:49.942Z,19.42
2022-10-11T18:55:17.773Z,19.80
2022-10-11T18:57:45.472Z,20.35
2022-10-11T19:00:37.720Z,20.38
2022-10-11T19:03:02.337Z,17.17
2022-10-11T19:05:30.491Z,14.93
2022-10-11T19:07:58.346Z,13.30
2022-10-11T19:10:26.301Z,12.38
2022-10-11T19:12:54.375Z,14.18
2022-10-11T19:15:26.469Z,12.52
2022-10-11T19:17:56.402Z,13.55
2022-10-11T19:20:24.277Z,12.63
2022-10-11T19:22:51.986Z,12.60
2022-10-11T19:25:19.671Z,14.18
2022-10-11T19:27:47.772Z,12.65
2022-10-11T19:30:15.454Z,12.82
2022-10-11T19:32:43.221Z,12.77
2022-10-11T19:35:11.143Z,13.88
2022-10-11T19:37:38.866Z,12.68
2022-10-11T19:40:07.265Z,12.48
2022-10-11T19:42:35.323Z,12.90
2022-10-11T19:45:02.951Z,12.60
2022-10-11T19:47:31.550Z,12.55
2022-10-11T19:49:59.559Z,13.02
2022-10-11T19:52:28.112Z,13.13
2022-10-11T19:54:56.922Z,13.43
2022-10-11T19:57:24.713Z,13.00
2022-10-11T19:59:52.931Z,12.73
2022-10-11T20:02:21.170Z,12.65
2022-10-11T20:04:52.720Z,11.88
2022-10-11T20:07:21.614Z,12.38
2022-10-11T20:09:49.646Z,12.30
2022-10-11T20:12:18.015Z,11.48
2022-10-11T20:14:46.876Z,12.20
2022-10-11T20:17:14.960Z,11.80
2022-10-11T20:19:42.987Z,12.77
2022-10-11T20:22:10.589Z,13.37
2022-10-11T20:24:38.900Z,12.73
2022-10-11T20:27:06.961Z,12.52
2022-10-11T20:29:36.226Z,14.73
2022-10-11T20:32:04.828Z,13.63
2022-10-11T20:34:33.280Z,14.57
2022-10-11T20:37:02.506Z,14.45
2022-10-11T20:39:31.994Z,12.98
2022-10-11T20:41:59.776Z,13.60
2022-10-11T20:44:27.652Z,14.15
2022-10-11T20:46:56.196Z,13.97
2022-10-11T20:49:25.176Z,14.38
2022-10-11T20:51:53.070Z,13.73
2022-10-11T20:54:21.041Z,14.75
2022-10-11T20:56:48.733Z,13.32
2022-10-11T20:59:16.758Z,12.93
2022-10-11T21:01:44.616Z,14.43
2022-10-11T21:04:19.001Z,14.50
2022-10-11T21:06:48.803Z,13.40
2022-10-11T21:09:17.614Z,14.40
2022-10-11T21:11:45.847Z,13.77
2022-10-11T21:14:13.733Z,14.45
2022-10-11T21:16:42.283Z,14.48
2022-10-11T21:19:15.614Z,15.02
2022-10-11T21:21:46.423Z,14.23
2022-10-11T21:24:16.331Z,15.03
2022-10-11T21:26:44.202Z,15.50
2022-10-11T21:29:12.703Z,16.63
2022-10-11T21:31:41.195Z,15.05
2022-10-11T21:34:08.997Z,15.23
2022-10-11T21:36:37.011Z,14.23
2022-10-11T21:39:04.953Z,15.40
2022-10-11T21:41:35.757Z,14.35
2022-10-11T21:44:04.749Z,13.48
2022-10-11T21:49:21.070Z,12.80
2022-10-11T21:51:48.718Z,12.57
2022-10-11T21:54:16.997Z,12.90
2022-10-11T21:56:44.699Z,11.68
2022-10-11T21:59:12.914Z,11.43
2022-10-11T22:01:42.099Z,12.20
2022-10-11T22:04:10.831Z,12.30
2022-10-11T22:06:39.622Z,14.25
2022-10-11T22:09:08.820Z,14.07
2022-10-11T22:11:37.140Z,12.85
2022-10-11T22:14:05.253Z,12.10
2022-10-11T22:16:33.914Z,11.93
2022-10-11T22:19:01.814Z,11.70
2022-10-11T22:21:29.776Z,12.27
2022-10-11T22:23:57.509Z,12.75
2022-10-11T22:26:28.101Z,13.77
2022-10-11T22:28:56.382Z,13.10
2022-10-11T22:31:24.649Z,15.73
2022-10-11T22:33:56.325Z,13.73
2022-10-11T22:36:24.659Z,14.32
2022-10-11T22:38:53.290Z,14.37
2022-10-11T22:41:21.585Z,15.68
2022-10-11T22:43:49.771Z,14.52
2022-10-11T22:46:17.699Z,15.13
2022-10-11T22:48:45.376Z,13.18
2022-10-11T22:51:13.918Z,12.70
2022-10-11T22:53:41.722Z,12.48
2022-10-11T22:56:11.017Z,13.80
2022-10-11T22:58:39.010Z,12.23
2022-10-11T23:01:08.626Z,12.02
2022-10-11T23:03:36.725Z,12.20
2022-10-11T23:06:05.219Z,12.27
2022-10-11T23:08:34.405Z,12.90
2022-10-11T23:11:04.950Z,12.93
2022-10-11T23:13:33.188Z,12.57
2022-10-11T23:16:09.313Z,12.63
2022-10-11T23:18:37.994Z,12.75
2022-10-11T23:21:06.470Z,12.75
2022-10-11T23:23:34.620Z,13.20
2022-10-11T23:26:08.071Z,12.50
2022-10-11T23:28:37.102Z,14.07
2022-10-11T23:31:14.591Z,14.27
2022-10-11T23:33:43.290Z,15.15
2022-10-11T23:36:20.206Z,15.13
2022-10-11T23:38:58.863Z,14.30
2022-10-11T23:41:29.355Z,15.00
2022-10-11T23:43:58.984Z,15.38
2022-10-11T23:46:26.761Z,15.25
2022-10-11T23:48:55.092Z,15.93
2022-10-11T23:51:23.161Z,14.93
2022-10-11T23:53:50.760Z,15.57
2022-10-11T23:56:18.851Z,15.23
2022-10-11T23:58:46.681Z,15.60
